createdAt,value
2024-04-22T00:02:29.310Z,11.50
2024-04-22T00:07:31.098Z,14.10
2024-04-22T00:12:32.973Z,9.60
2024-04-22T00:17:35.513Z,10.10
2024-04-22T00:22:37.451Z,9.40
2024-04-22T00:27:39.200Z,13.80
2024-04-22T00:32:41.059Z,9.80
2024-04-22T00:37:42.995Z,8.90
2024-04-22T00:42:48.315Z,7.70
2024-04-22T00:47:50.611Z,6.70
2024-04-22T00:52:53.435Z,7.30
2024-04-22T00:57:58.397Z,8.10
2024-04-22T01:03:00.108Z,10.30
2024-04-22T01:08:02.487Z,10.90
2024-04-22T01:13:04.976Z,13.60
2024-04-22T01:18:07.029Z,10.30
2024-04-22T01:23:08.668Z,9.20
2024-04-22T01:28:10.468Z,10.30
2024-04-22T01:33:12.395Z,9.40
2024-04-22T01:38:14.116Z,11.80
2024-04-22T01:43:15.907Z,9.40
2024-04-22T01:48:17.751Z,10.40
2024-04-22T01:53:19.414Z,7.80
2024-04-22T01:58:21.183Z,9.00
2024-04-22T02:03:23.170Z,9.70
2024-04-22T02:08:24.884Z,8.70
2024-04-22T02:13:26.664Z,9.00
2024-04-22T02:18:28.654Z,8.80
2024-04-22T02:23:30.548Z,8.00
2024-04-22T02:28:32.322Z,9.20
2024-04-22T02:33:34.172Z,9.10
2024-04-22T02:38:36.010Z,7.20
2024-04-22T02:43:37.803Z,8.10
2024-04-22T02:48:39.697Z,9.10
2024-04-22T02:53:41.569Z,9.50
2024-04-22T02:58:46.340Z,8.50
2024-04-22T03:03:48.159Z,11.00
2024-04-22T03:08:51.631Z,10.70
2024-04-22T03:13:53.504Z,9.00
2024-04-22T03:18:55.256Z,10.70
2024-04-22T03:23:56.997Z,9.00
2024-04-22T03:28:58.793Z,10.00
2024-04-22T03:34:00.880Z,8.00
2024-04-22T03:39:02.549Z,8.40
2024-04-22T03:44:04.436Z,10.10
2024-04-22T03:49:24.988Z,10.10
2024-04-22T03:54:26.673Z,7.50
2024-04-22T03:59:28.516Z,7.30
2024-04-22T04:04:30.379Z,8.20
2024-04-22T04:09:32.271Z,8.50
2024-04-22T04:14:34.032Z,9.20
2024-04-22T04:19:35.950Z,7.30
2024-04-22T04:24:37.823Z,12.40
2024-04-22T04:29:39.571Z,9.30
2024-04-22T04:34:43.581Z,12.20
2024-04-22T04:39:45.332Z,13.00
2024-04-22T04:44:47.021Z,12.20
2024-04-22T04:49:48.961Z,11.80
2024-04-22T04:54:53.141Z,10.70
2024-04-22T04:59:55.220Z,11.70
2024-04-22T05:04:56.963Z,11.70
2024-04-22T05:09:58.725Z,12.00
2024-04-22T05:15:01.612Z,9.90
2024-04-22T05:20:03.630Z,10.50
2024-04-22T05:25:05.479Z,9.80
2024-04-22T05:30:07.596Z,9.50
2024-04-22T05:35:28.180Z,10.00
2024-04-22T05:40:30.641Z,10.90
2024-04-22T05:45:33.901Z,9.60
2024-04-22T05:50:35.667Z,7.10
2024-04-22T05:55:37.468Z,9.10
2024-04-22T06:00:39.328Z,8.90
2024-04-22T06:05:41.290Z,10.10
2024-04-22T06:10:47.191Z,9.40
2024-04-22T06:15:49.090Z,9.40
2024-04-22T06:20:50.888Z,7.80
2024-04-22T06:25:52.663Z,7.10
2024-04-22T06:30:54.381Z,8.00
2024-04-22T06:35:56.946Z,7.30
2024-04-22T06:40:58.654Z,5.50
2024-04-22T06:46:00.443Z,6.90
2024-04-22T06:51:02.210Z,8.70
2024-04-22T06:56:04.211Z,6.40
2024-04-22T07:01:05.864Z,7.30
2024-04-22T07:06:11.218Z,7.20
2024-04-22T07:11:12.981Z,5.00
2024-04-22T07:16:15.224Z,4.70
2024-04-22T07:21:17.182Z,4.40
2024-04-22T07:26:19.011Z,5.10
2024-04-22T07:31:21.080Z,3.70
2024-04-22T07:36:32.120Z,3.50
2024-04-22T07:41:34.229Z,3.60
2024-04-22T07:46:36.266Z,3.90
2024-04-22T07:51:38.868Z,2.90
2024-04-22T07:56:41.012Z,2.60
2024-04-22T08:01:43.094Z,2.20
2024-04-22T08:06:45.671Z,2.70
2024-04-22T08:11:47.486Z,3.00
2024-04-22T08:16:49.334Z,4.70
2024-04-22T08:21:51.208Z,3.20
2024-04-22T08:26:57.149Z,2.70
2024-04-22T08:31:58.874Z,3.00
2024-04-22T08:37:00.634Z,2.30
2024-04-22T08:42:10.787Z,4.50
2024-04-22T08:47:12.514Z,4.10
2024-04-22T08:52:16.453Z,3.00
2024-04-22T08:57:18.726Z,2.80
2024-04-22T09:02:21.766Z,2.70
2024-04-22T09:07:23.531Z,2.50
2024-04-22T09:12:25.561Z,2.40
2024-04-22T09:17:27.916Z,2.70
2024-04-22T09:22:31.398Z,2.10
2024-04-22T09:27:33.473Z,3.40
2024-04-22T09:32:36.783Z,3.70
2024-04-22T09:37:39.942Z,2.70
2024-04-22T09:42:43.504Z,3.80
2024-04-22T09:47:47.650Z,2.50
2024-04-22T09:52:51.043Z,4.00
2024-04-22T09:58:01.795Z,3.50
2024-04-22T10:03:06.923Z,2.90
2024-04-22T10:08:09.062Z,3.00
2024-04-22T10:13:12.400Z,2.60
2024-04-22T10:18:16.618Z,2.80
2024-04-22T10:23:18.551Z,4.10
2024-04-22T10:28:20.461Z,2.10
2024-04-22T10:33:22.204Z,2.20
2024-04-22T10:38:23.902Z,2.90
2024-04-22T10:43:25.799Z,3.20
2024-04-22T10:48:28.092Z,2.30
2024-04-22T10:53:29.913Z,3.00
2024-04-22T10:58:31.663Z,2.40
2024-04-22T11:03:33.662Z,3.90
2024-04-22T11:08:36.682Z,3.80
2024-04-22T11:13:39.092Z,3.30
2024-04-22T11:18:40.913Z,2.50
2024-04-22T11:23:43.238Z,2.40
2024-04-22T11:28:46.702Z,2.10
2024-04-22T11:33:48.586Z,2.20
2024-04-22T11:38:51.594Z,2.30
2024-04-22T11:43:54.499Z,4.40
2024-04-22T11:48:56.223Z,3.10
2024-04-22T11:53:58.198Z,2.50
2024-04-22T11:59:00.782Z,3.10
2024-04-22T12:04:02.945Z,4.10
2024-04-22T12:09:06.726Z,3.40
2024-04-22T12:14:09.986Z,2.70
2024-04-22T12:19:11.613Z,2.90
2024-04-22T12:24:13.372Z,2.80
2024-04-22T12:29:15.117Z,2.80
2024-04-22T12:34:17.127Z,3.90
2024-04-22T12:39:20.692Z,4.20
2024-04-22T12:44:22.425Z,2.80
2024-04-22T12:49:42.921Z,3.20
2024-04-22T12:54:44.733Z,4.60
2024-04-22T12:59:46.493Z,3.40
2024-04-22T13:04:48.236Z,5.50
2024-04-22T13:09:49.999Z,4.60
2024-04-22T13:14:53.618Z,3.20
2024-04-22T13:19:55.421Z,4.70
2024-04-22T13:24:57.307Z,4.70
2024-04-22T13:30:03.047Z,3.60
2024-04-22T13:35:05.456Z,5.80
2024-04-22T13:40:08.961Z,4.00
2024-04-22T13:45:10.669Z,3.70
2024-04-22T13:50:12.590Z,3.20
2024-04-22T13:55:14.703Z,3.70
2024-04-22T14:00:16.663Z,3.70
2024-04-22T14:05:18.589Z,4.60
2024-04-22T14:10:20.433Z,3.50
2024-04-22T14:15:27.649Z,4.60
2024-04-22T14:20:39.081Z,5.60
2024-04-22T14:25:40.834Z,4.10
2024-04-22T14:30:42.626Z,5.70
2024-04-22T14:35:44.340Z,4.30
2024-04-22T14:40:46.123Z,4.70
2024-04-22T14:45:47.979Z,6.80
2024-04-22T14:50:53.371Z,4.30
2024-04-22T14:55:55.036Z,6.00
2024-04-22T15:00:56.861Z,4.80
2024-04-22T15:05:58.668Z,7.00
2024-04-22T15:11:03.999Z,6.10
2024-04-22T15:16:08.040Z,4.70
2024-04-22T15:21:09.961Z,4.40
2024-04-22T15:26:11.907Z,7.10
2024-04-22T15:31:13.640Z,5.00
2024-04-22T15:36:17.382Z,6.50
2024-04-22T15:41:19.164Z,6.50
2024-04-22T15:46:20.946Z,6.40
2024-04-22T15:51:23.882Z,5.80
2024-04-22T15:56:25.660Z,5.60
2024-04-22T16:01:27.499Z,4.90
2024-04-22T16:06:29.240Z,7.40
2024-04-22T16:11:32.975Z,6.70
2024-04-22T16:16:36.572Z,5.30
2024-04-22T16:21:38.386Z,5.20
2024-04-22T16:26:40.137Z,7.70
2024-04-22T16:31:42.510Z,6.80
2024-04-22T16:36:45.312Z,6.30
2024-04-22T16:41:47.064Z,7.00
2024-04-22T16:46:48.817Z,5.70
2024-04-22T16:51:50.608Z,5.90
2024-04-22T16:56:52.235Z,6.80
2024-04-22T17:01:53.986Z,6.90
2024-04-22T17:06:55.936Z,6.50
2024-04-22T17:11:57.753Z,7.20
2024-04-22T17:17:01.748Z,6.20
2024-04-22T17:22:05.184Z,6.30
2024-04-22T17:27:06.952Z,7.00
2024-04-22T17:32:08.781Z,8.60
2024-04-22T17:37:12.484Z,7.20
2024-04-22T17:42:14.427Z,8.30
2024-04-22T17:47:16.214Z,8.60
2024-04-22T17:52:17.993Z,10.00
2024-04-22T17:57:19.742Z,13.20
2024-04-22T18:02:21.540Z,10.60
2024-04-22T18:07:23.387Z,15.20
2024-04-22T18:12:25.102Z,15.00
2024-04-22T18:17:27.424Z,12.80
2024-04-22T18:22:32.370Z,9.20
2024-04-22T18:27:40.169Z,10.20
2024-04-22T18:32:43.490Z,13.00
2024-04-22T18:37:45.276Z,13.30
2024-04-22T18:42:47.011Z,16.30
2024-04-22T18:47:48.854Z,20.00
2024-04-22T18:52:50.776Z,29.60
2024-04-22T18:57:52.735Z,23.60
2024-04-22T19:02:55.185Z,21.80
2024-04-22T19:07:57.032Z,24.00
2024-04-22T19:12:58.994Z,18.50
2024-04-22T19:18:00.929Z,16.00
2024-04-22T19:23:02.884Z,17.00
2024-04-22T19:28:04.924Z,16.80
2024-04-22T19:33:07.663Z,14.50
2024-04-22T19:38:09.414Z,15.90
2024-04-22T19:43:11.141Z,15.70
2024-04-22T19:48:13.226Z,21.40
2024-04-22T19:53:15.208Z,25.00
2024-04-22T19:58:17.052Z,27.00
2024-04-22T20:03:18.776Z,24.80
2024-04-22T20:08:21.441Z,38.10
2024-04-22T20:13:23.261Z,57.30
2024-04-22T20:18:40.538Z,53.80
2024-04-22T20:23:42.286Z,67.50
2024-04-22T20:28:44.086Z,71.00
2024-04-22T20:33:46.280Z,64.60
2024-04-22T20:38:48.125Z,64.60
2024-04-22T20:43:49.912Z,50.60
2024-04-22T20:48:51.751Z,53.60
2024-04-22T20:53:53.473Z,48.70
2024-04-22T20:58:56.441Z,49.60
2024-04-22T21:03:58.250Z,56.50
2024-04-22T21:09:04.088Z,60.60
2024-04-22T21:14:06.079Z,66.70
2024-04-22T21:19:15.064Z,77.30
2024-04-22T21:24:21.896Z,79.80
2024-04-22T21:29:23.788Z,78.10
2024-04-22T21:34:25.722Z,80.50
2024-04-22T21:39:27.679Z,75.30
2024-04-22T21:44:30.161Z,73.70
2024-04-22T21:49:32.076Z,70.70
2024-04-22T21:54:33.759Z,68.60
2024-04-22T22:00:13.143Z,63.70
2024-04-22T22:05:52.673Z,70.10
2024-04-22T22:16:15.930Z,79.70
2024-04-22T22:21:17.826Z,85.60
2024-04-22T22:26:19.521Z,86.10
2024-04-22T22:31:21.314Z,82.60
2024-04-22T22:36:23.137Z,78.30
2024-04-22T22:41:24.792Z,83.40
2024-04-22T22:46:26.463Z,85.40
2024-04-22T22:51:28.137Z,80.60
2024-04-22T22:56:29.826Z,77.70
2024-04-22T23:01:31.517Z,70.90
2024-04-22T23:06:33.442Z,70.30
2024-04-22T23:11:35.163Z,69.70
2024-04-22T23:16:37.370Z,65.10
2024-04-22T23:21:39.067Z,69.20
2024-04-22T23:26:52.089Z,63.80
2024-04-22T23:31:53.827Z,63.30
2024-04-22T23:36:55.600Z,71.20
2024-04-22T23:41:57.288Z,68.90
2024-04-22T23:46:59.236Z,70.50
2024-04-22T23:52:01.097Z,71.60
2024-04-22T23:57:03.984Z,67.00
